메인 페이지
METAR-TAF:

METAR-TAF

공항 :

코치, 인도

위도: 10-09-07N, 경도: 76-24-07E, 고도: 9m

현재 날씨관측

예보는 39분 전, 10:00시(UTC)에 발표되었습니다.
북북동3kt
온도 32°C
습도 46%
기압 1008 hPa
시정: 5000m
고도 1500ft 상공 구름 조금
연무

METAR: VOCI 151000Z 03003KT 5000 HZ FEW015 32/19 Q1008 NOSIG

시각: 16:09 (10:39 UTC)

예보

예보는 2 시간 39분 전, 08:00시(UTC)에 발표되었습니다.
예보 대상 시간: 15일 09시부터 15일 18시까지 (UTC)
서남서10kt
시정: 5000m
고도 1500ft 상공 구름 보통
고도 9000ft 상공 구름 많음
연무
일시적
15일 09시부터 15일 12시까지 (UTC)
시정: 2000m
고도 1000ft 상공 구름 보통
고도 2500ft 상공 구름 조금, 적란운.
고도 9000ft 상공 구름 많음
전환 중
15일 17시부터 15일 18시까지 (UTC)
kt
시정: 4000m
연무

TAF: VOCI 150800Z 1509/1518 24010KT 5000 HZ SCT015 BKN090 TEMPO 1509/1512 2000 TSRA/RA SCT010 FEW025CB BKN090 BECMG 1517/1518 00000KT 4000 HZ

4,000개 이상의 공항 관측 자료 및 예보 (METAR 및 TAF 보고).

지도상에서 검색 가능한 기상관측소가 노란 점과 빨간 점으로 표시되어 있습니다.

기상관측소 명을 보려면 표시 위로 마우스를 이동하세요.

날씨 관측과 예보를 보려면 클릭하세요.

지도 변경 : 확대하려면 엑스 표시가 있는 녹색 버튼, 축소하려면 빼기 표시가 있는 녹색 버튼, 다음 페이지의 지도를 보려면 녹색 화살표를 클릭하세요.


METAR-TAF: